Time;durP1;ratioP1;P1;durP2;ratioP2;P2;SDS_P1;SDS_P2;PMS_P1;PMS_P2;Temp;Humidity;BMP_temperature;BMP_pressure;BME280_temperature;BME280_humidity;BME280_pressure;Samples;Min_cycle;Max_cycle;Signal;HPM_P1;HPM_P2
2021/12/05 00:16:52;;;;;;;18.65;7.78;;;-1.40;50.70;;;-0.91;86.14;98318.22;5065670;27;118399;-86
2021/12/05 00:23:46;;;;;;;18.55;7.63;;;-1.50;58.10;;;-0.81;86.68;98343.28;5047596;27;128821;-89
2021/12/05 00:26:19;;;;;;;17.70;6.80;;;-1.50;57.50;;;-0.95;87.27;98345.66;5063042;27;129633;-89
2021/12/05 00:29:25;;;;;;;11.07;6.45;;;-1.50;57.50;;;-0.92;87.59;98353.94;5048194;27;117928;-88
2021/12/05 00:32:01;;;;;;;15.60;6.93;;;-1.40;57.60;;;-0.86;87.65;98330.75;5031281;27;112610;-88
2021/12/05 00:41:08;;;;;;;14.27;7.03;;;-1.50;57.80;;;-0.94;87.27;98323.28;5110718;27;102390;-84
2021/12/05 00:44:34;;;;;;;18.90;7.07;;;-1.50;57.50;;;-0.92;87.12;98326.47;5088740;27;113470;-87
2021/12/05 00:47:27;;;;;;;14.95;7.07;;;-1.60;57.40;;;-0.98;87.83;98324.88;5060918;27;129046;-87
2021/12/05 00:55:54;;;;;;;16.98;7.32;;;-1.70;59.60;;;-1.27;88.64;98314.72;5068447;27;113028;-87
2021/12/05 01:01:47;;;;;;;18.25;7.57;;;-2.00;59.40;;;-1.32;88.19;98338.66;5067633;27;128960;-85
2021/12/05 01:04:42;;;;;;;14.45;7.68;;;-2.10;61.10;;;-1.36;88.61;98332.25;5082041;27;118426;-85
2021/12/05 01:07:27;;;;;;;15.25;7.45;;;-2.10;63.40;;;-1.33;88.42;98331.72;5080240;27;113118;-82
2021/12/05 01:10:09;;;;;;;19.25;7.82;;;-2.10;64.80;;;-1.30;88.98;98347.19;5051014;27;128799;-86
2021/12/05 01:12:46;;;;;;;18.80;7.63;;;-2.10;66.30;;;-1.36;89.30;98348.22;5067640;27;128722;-86
2021/12/05 01:15:25;;;;;;;15.15;7.18;;;-2.00;68.50;;;-1.38;89.96;98343.16;5085907;27;117979;-86
2021/12/05 01:18:01;;;;;;;16.60;7.57;;;-1.90;70.00;;;-1.27;89.52;98336.00;5083743;27;113215;-88
2021/12/05 01:20:38;;;;;;;17.30;7.82;;;-1.90;69.90;;;-1.24;89.10;98330.16;5067156;27;128297;-86
2021/12/05 01:23:16;;;;;;;14.20;6.88;;;-1.90;70.00;;;-1.22;89.36;98328.03;5068145;27;128939;-86
2021/12/05 01:25:54;;;;;;;15.10;7.35;;;-1.90;69.50;;;-1.24;89.24;98327.50;5099861;27;119048;-87
2021/12/05 01:28:33;;;;;;;15.80;7.03;;;-2.00;69.00;;;-1.31;88.98;98334.94;5069939;27;113104;-87
2021/12/05 01:31:16;;;;;;;13.93;7.15;;;-2.00;68.60;;;-1.43;89.68;98318.38;5068827;27;129964;-88
2021/12/05 01:33:49;;;;;;;16.00;7.60;;;-2.10;68.70;;;-1.50;89.61;98321.31;5083930;27;129396;-86
2021/12/05 01:36:27;;;;;;;15.15;6.88;;;-2.20;69.20;;;-1.53;89.85;98332.47;5067572;27;118436;-85
2021/12/05 01:39:09;;;;;;;19.17;8.15;;;-2.30;69.80;;;-1.58;90.39;98341.22;5067457;27;113428;-85
2021/12/05 01:56:13;;;;;;;19.08;8.90;;;-2.30;76.10;;;-1.74;91.80;98321.75;5053312;27;128935;-85
2021/12/05 01:58:55;;;;;;;16.15;8.25;;;-2.30;76.70;;;-1.69;91.64;98328.94;5088860;27;118483;-85
2021/12/05 02:10:39;;;;;;;18.35;8.63;;;-2.10;81.50;;;-1.59;92.10;98328.19;5054792;27;118430;-89
2021/12/05 02:16:04;;;;;;;19.65;8.73;;;-2.00;81.60;;;-1.55;92.39;98330.06;4976021;28;129257;-85
2021/12/05 02:29:59;;;;;;;23.70;8.70;;;-1.80;77.60;;;-1.52;92.86;98340.19;5053002;27;129048;-86
2021/12/05 02:35:32;;;;;;;19.85;9.68;;;-1.70;75.40;;;-1.54;92.79;98341.50;5067280;27;113884;-87
2021/12/05 02:38:16;;;;;;;16.35;8.85;;;-1.70;74.40;;;-1.51;93.20;98341.78;5054686;27;130755;-88
2021/12/05 02:40:53;;;;;;;19.88;9.93;;;-1.70;73.60;;;-1.38;92.45;98340.50;5054718;27;128992;-90
2021/12/05 02:43:27;;;;;;;21.40;10.18;;;-1.70;73.10;;;-1.27;92.13;98331.47;5054630;27;118183;-91
2021/12/05 02:46:00;;;;;;;17.45;10.02;;;-1.70;72.90;;;-1.28;91.46;98326.41;5088890;27;115476;-88
2021/12/05 02:48:31;;;;;;;19.33;10.13;;;-1.70;72.50;;;-1.24;91.49;98329.38;5067530;27;129145;-87
2021/12/05 02:51:12;;;;;;;20.85;10.70;;;-1.70;72.10;;;-1.25;91.33;98325.09;5066565;27;127290;-87
2021/12/05 02:53:49;;;;;;;22.13;10.27;;;-1.70;71.90;;;-1.23;91.33;98321.13;5039396;27;117028;-89
2021/12/05 02:56:20;;;;;;;19.00;10.07;;;-1.70;71.30;;;-1.22;90.96;98330.69;5053144;27;115501;-87
2021/12/05 02:58:51;;;;;;;24.35;10.00;;;-1.70;70.70;;;-1.23;90.89;98331.78;5053008;27;130009;-86
2021/12/05 03:01:32;;;;;;;28.60;10.93;;;-1.80;70.40;;;-1.22;90.30;98328.03;5052326;27;129692;-87
2021/12/05 03:04:01;;;;;;;18.20;9.60;;;-1.80;70.30;;;-1.21;90.06;98332.31;5051867;27;118518;-86
2021/12/05 03:06:33;;;;;;;21.77;10.57;;;-1.80;70.40;;;-1.20;90.41;98325.94;5070184;27;112050;-86
2021/12/05 03:09:12;;;;;;;30.50;11.80;;;-1.80;70.30;;;-1.19;90.02;98332.84;5051893;27;129313;-85
2021/12/05 03:11:43;;;;;;;19.88;10.32;;;-1.80;70.40;;;-1.13;90.10;98339.78;5051753;27;129950;-85
2021/12/05 03:14:12;;;;;;;20.60;10.18;;;-1.80;70.60;;;-1.21;90.01;98334.97;5051864;27;118258;-87
2021/12/05 03:16:41;;;;;;;21.38;10.27;;;-1.80;71.00;;;-1.20;89.99;98343.75;5052143;27;114937;-86
2021/12/05 03:19:14;;;;;;;20.45;10.32;;;-1.80;71.00;;;-1.22;90.03;98349.31;5051534;27;129168;-86
2021/12/05 03:21:44;;;;;;;19.40;10.25;;;-1.80;71.10;;;-1.20;90.12;98362.38;5051544;27;128913;-86
2021/12/05 03:24:17;;;;;;;20.25;10.07;;;-1.80;71.20;;;-1.31;90.70;98361.53;5052011;27;117964;-87
2021/12/05 03:26:52;;;;;;;20.13;10.85;;;-1.80;71.50;;;-1.37;91.35;98354.59;5047781;27;116087;-86
2021/12/05 03:29:22;;;;;;;20.83;10.85;;;-1.80;72.40;;;-1.43;91.64;98363.63;5050707;27;128733;-86
2021/12/05 03:31:53;;;;;;;20.83;10.38;;;-1.80;71.60;;;-1.56;91.98;98371.03;5034976;27;129239;-85
2021/12/05 03:34:27;;;;;;;22.05;9.73;;;-1.80;71.10;;;-1.46;92.03;98368.41;5048874;27;119437;-84
2021/12/05 03:36:58;;;;;;;21.92;11.27;;;-1.80;71.10;;;-1.38;91.57;98369.00;5052494;27;112683;-84
2021/12/05 03:39:30;;;;;;;21.80;10.45;;;-1.80;71.10;;;-1.36;91.46;98370.31;5066266;27;130070;-84
2021/12/05 03:41:59;;;;;;;22.13;10.75;;;-1.70;70.90;;;-1.36;91.38;98380.16;5064842;27;129481;-83
2021/12/05 03:44:32;;;;;;;21.45;10.35;;;-1.70;70.40;;;-1.49;91.97;98370.81;5051311;27;118538;-83
2021/12/05 03:47:02;;;;;;;19.73;10.07;;;-1.70;69.90;;;-1.29;91.43;98370.88;5051445;27;115204;-85
2021/12/05 03:49:32;;;;;;;23.20;11.38;;;-1.70;70.00;;;-1.19;91.25;98371.97;5068054;27;129645;-84
2021/12/05 03:52:28;;;;;;;20.60;11.07;;;-1.70;69.90;;;-1.21;90.37;98369.56;5066949;27;130398;-86
2021/12/05 03:54:59;;;;;;;19.90;10.20;;;-1.70;69.70;;;-1.09;90.26;98372.03;5051312;27;118324;-86
2021/12/05 03:57:28;;;;;;;22.42;10.55;;;-1.70;69.60;;;-1.07;90.04;98372.53;5051163;27;115128;-85
2021/12/05 03:59:57;;;;;;;18.52;9.98;;;-1.70;69.20;;;-1.07;89.69;98377.09;5067964;27;129658;-85
2021/12/05 04:02:26;;;;;;;21.83;10.85;;;-1.70;68.90;;;-1.05;89.68;98375.75;5051289;27;129135;-83
2021/12/05 04:04:54;;;;;;;21.23;11.18;;;-1.80;68.70;;;-1.02;88.71;98372.56;5069542;27;117723;-84
2021/12/05 04:07:26;;;;;;;22.02;10.40;;;-1.80;68.60;;;-1.09;88.93;98378.13;5050651;27;114878;-85
2021/12/05 04:09:54;;;;;;;21.48;10.70;;;-1.80;68.20;;;-1.18;89.30;98385.03;5066075;27;129144;-85
2021/12/05 04:12:25;;;;;;;21.38;11.27;;;-1.90;68.40;;;-1.18;88.83;98381.56;5049500;27;129609;-85
2021/12/05 04:14:55;;;;;;;24.33;10.88;;;-2.00;68.40;;;-1.27;89.14;98383.94;5050847;27;117208;-84
2021/12/05 04:17:28;;;;;;;23.73;11.40;;;-2.10;68.30;;;-1.33;88.87;98387.63;5051123;27;115075;-85
2021/12/05 04:19:58;;;;;;;23.58;11.20;;;-2.20;68.30;;;-1.37;88.84;98381.22;5065287;27;129640;-86
2021/12/05 04:22:27;;;;;;;23.33;11.07;;;-2.30;68.30;;;-1.46;88.84;98379.06;5050424;27;128942;-86
2021/12/05 04:24:57;;;;;;;22.85;11.55;;;-2.40;68.30;;;-1.53;88.95;98381.16;5051357;27;117376;-89
2021/12/05 04:27:28;;;;;;;19.67;11.30;;;-2.50;68.30;;;-1.62;88.93;98382.72;5052070;27;115155;-88
2021/12/05 04:29:56;;;;;;;21.00;10.07;;;-2.60;68.40;;;-1.78;89.88;98389.03;5051933;27;129377;-88
2021/12/05 04:32:27;;;;;;;20.83;10.70;;;-2.70;69.60;;;-2.00;90.95;98385.44;5050962;27;129054;-86
2021/12/05 04:34:55;;;;;;;20.95;12.25;;;-2.80;72.10;;;-2.09;91.40;98388.81;5050697;27;117533;-86
2021/12/05 04:37:24;;;;;;;21.95;10.98;;;-2.90;73.90;;;-2.20;91.85;98394.09;5051633;27;115077;-87
2021/12/05 04:39:54;;;;;;;21.38;11.60;;;-2.90;76.40;;;-2.41;93.23;98403.75;5065328;27;129609;-86
2021/12/05 04:42:27;;;;;;;24.00;12.25;;;-3.00;80.70;;;-2.71;95.22;98409.59;5067608;27;129689;-86
2021/12/05 04:44:56;;;;;;;28.17;13.07;;;-3.00;85.60;;;-2.70;95.45;98405.88;5050747;27;118087;-86
2021/12/05 04:47:25;;;;;;;27.00;12.73;;;-3.00;87.70;;;-2.59;95.07;98409.44;5050879;27;115050;-86
2021/12/05 04:49:56;;;;;;;22.55;11.88;;;-3.00;89.20;;;-2.44;94.74;98404.25;5081147;27;129671;-88
2021/12/05 04:52:25;;;;;;;24.90;11.57;;;-3.00;90.30;;;-2.43;94.03;98410.34;5050341;27;127952;-86
2021/12/05 04:54:54;;;;;;;26.38;13.43;;;-3.00;90.80;;;-2.35;93.80;98412.56;5051964;27;118656;-85
2021/12/05 04:57:24;;;;;;;23.90;13.30;;;-3.00;91.00;;;-2.24;93.59;98414.25;5067428;27;115478;-87
2021/12/05 04:59:54;;;;;;;26.90;14.23;;;-2.90;91.30;;;-2.15;93.48;98421.75;5067060;27;129476;-86
2021/12/05 05:02:24;;;;;;;23.67;11.90;;;-2.90;91.80;;;-2.05;93.23;98427.16;5050110;27;128599;-86
2021/12/05 05:05:31;;;;;;;23.88;12.48;;;-2.80;92.30;;;-2.03;92.83;98427.69;5067225;27;119026;-87
2021/12/05 05:08:00;;;;;;;25.48;11.73;;;-2.80;92.90;;;-1.89;92.84;98420.88;5050830;27;115773;-88
2021/12/05 05:10:33;;;;;;;25.15;12.35;;;-2.60;93.30;;;-2.00;92.29;98420.00;5065592;27;130122;-87
2021/12/05 05:13:01;;;;;;;29.92;12.38;;;-2.60;92.20;;;-2.69;93.83;98423.41;5067750;27;129603;-88
2021/12/05 05:15:32;;;;;;;26.67;12.27;;;-2.80;88.10;;;-2.77;95.28;98414.06;5066084;27;118021;-86
2021/12/05 05:18:03;;;;;;;23.38;12.82;;;-2.90;88.10;;;-2.67;94.84;98420.50;5064997;27;114081;-87
2021/12/05 05:20:49;;;;;;;27.42;12.93;;;-2.90;88.80;;;-2.50;94.42;98420.41;5051497;27;128059;-88
2021/12/05 05:23:36;;;;;;;24.75;12.63;;;-3.00;88.80;;;-2.33;93.86;98418.44;5050183;27;128971;-87
2021/12/05 05:29:21;;;;;;;25.05;11.48;;;-2.90;89.40;;;-2.59;94.38;98417.41;5053423;27;114680;-88
2021/12/05 05:46:03;;;;;;;24.35;12.75;;;-2.40;91.50;;;-1.63;93.08;98429.00;5049662;27;128503;-86
2021/12/05 05:48:39;;;;;;;28.70;13.70;;;-2.30;91.60;;;-1.52;92.88;98428.00;5053633;27;117744;-86
2021/12/05 05:51:10;;;;;;;33.87;17.27;;;-2.20;91.60;;;-1.58;92.65;98434.34;5053182;27;115413;-86
2021/12/05 05:53:39;;;;;;;34.55;17.10;;;-2.20;90.80;;;-1.60;93.32;98430.38;5051749;27;129005;-85
2021/12/05 05:56:14;;;;;;;31.08;15.63;;;-2.20;90.60;;;-1.48;92.95;98439.75;5069368;27;129223;-85
2021/12/05 05:58:47;;;;;;;32.58;17.33;;;-2.20;90.70;;;-1.34;92.34;98436.59;5052909;27;117901;-86
2021/12/05 06:01:32;;;;;;;33.90;18.20;;;-2.10;90.70;;;-1.23;92.60;98438.25;5070229;27;115132;-85
2021/12/05 06:04:03;;;;;;;29.17;15.95;;;-2.00;90.70;;;-1.14;92.35;98444.69;5069584;27;128690;-78
2021/12/05 06:06:32;;;;;;;27.98;15.57;;;-1.90;90.60;;;-1.04;91.99;98443.09;5069567;27;129351;-83
2021/12/05 06:09:03;;;;;;;26.10;13.73;;;-1.80;90.50;;;-1.02;92.08;98449.00;5065625;27;119053;-83
2021/12/05 06:11:32;;;;;;;27.05;13.60;;;-1.80;90.30;;;-1.01;92.45;98445.25;5068836;27;115118;-86
2021/12/05 06:14:01;;;;;;;26.88;14.02;;;-1.70;90.20;;;-1.03;92.57;98452.72;5066579;27;129879;-87
2021/12/05 06:16:31;;;;;;;24.92;12.95;;;-1.70;89.40;;;-0.94;91.42;98461.81;5051657;27;128954;-84
2021/12/05 06:19:03;;;;;;;24.23;12.95;;;-1.70;88.60;;;-0.88;91.39;98465.28;5052430;27;117896;-82
2021/12/05 06:21:31;;;;;;;22.70;12.90;;;-1.60;87.50;;;-0.80;91.39;98468.22;5069686;27;115181;-84
2021/12/05 06:24:00;;;;;;;26.30;13.25;;;-1.60;87.10;;;-0.69;91.14;98462.94;5065386;27;129566;-84
2021/12/05 06:26:29;;;;;;;24.70;13.48;;;-1.50;86.40;;;-0.63;91.02;98456.56;5068129;27;129437;-84
2021/12/05 06:29:06;;;;;;;23.00;12.38;;;-1.50;85.50;;;-0.63;90.75;98468.00;5069157;27;118091;-84
2021/12/05 06:31:51;;;;;;;23.30;11.77;;;-1.40;83.80;;;-0.59;90.53;98473.63;5068637;27;115021;-79
2021/12/05 06:37:30;;;;;;;26.83;13.73;;;-1.40;79.30;;;-0.83;90.25;98482.06;5067496;27;129974;-85
2021/12/05 06:40:19;;;;;;;25.13;13.13;;;-1.40;76.20;;;-0.62;89.83;98479.50;5052948;27;118683;-84
2021/12/05 06:42:58;;;;;;;25.10;13.82;;;-1.30;75.30;;;-0.54;89.35;98492.28;5053282;27;115324;-85
2021/12/05 06:48:13;;;;;;;27.13;13.20;;;-1.30;71.60;;;-0.54;88.61;98497.63;5053672;27;129884;-84
2021/12/05 06:50:44;;;;;;;27.00;14.07;;;-1.30;69.30;;;-0.46;88.37;98490.97;5055036;27;117709;-85
2021/12/05 06:53:12;;;;;;;24.67;13.07;;;-1.20;68.20;;;-0.47;87.89;98492.03;5070889;27;115976;-85
2021/12/05 06:55:42;;;;;;;28.98;13.98;;;-1.20;65.90;;;-0.33;87.97;98503.00;5053066;27;129113;-86
2021/12/05 06:58:10;;;;;;;25.25;14.55;;;-1.20;66.20;;;-0.24;87.29;98512.06;5065906;27;129942;-85
2021/12/05 07:00:39;;;;;;;28.48;15.27;;;-1.10;64.90;;;-0.19;86.88;98504.06;5052499;27;118018;-86
2021/12/05 07:03:09;;;;;;;26.50;14.15;;;-1.10;63.90;;;-0.46;87.29;98510.44;5069626;27;115840;-85
2021/12/05 07:05:50;;;;;;;31.35;14.27;;;-1.10;61.10;;;-0.41;87.54;98517.63;5052717;27;130029;-86
2021/12/05 07:08:22;;;;;;;23.98;12.95;;;-1.20;61.20;;;-0.22;86.79;98520.59;5068894;27;128823;-86
2021/12/05 07:10:56;;;;;;;23.38;13.60;;;-1.10;62.70;;;-0.06;86.50;98519.56;5082928;27;118907;-83
2021/12/05 07:16:17;;;;;;;25.52;13.13;;;-0.90;60.50;;;0.08;85.39;98521.69;5050780;27;129131;-85
2021/12/05 07:21:40;;;;;;;29.00;15.27;;;-0.90;57.60;;;0.25;84.35;98518.78;5068218;27;118366;-85
2021/12/05 07:24:19;;;;;;;25.85;14.65;;;-0.80;56.60;;;0.34;84.05;98534.00;5070554;27;115346;-84
2021/12/05 07:40:18;;;;;;;31.40;14.27;;;-0.70;55.60;;;0.42;83.30;98524.66;5071107;27;129049;-86
2021/12/05 07:40:54;;;;;;;22.85;13.38;;;-0.50;49.10;;;0.71;81.84;98532.88;5010367;28;129120;-84
2021/12/05 07:43:23;;;;;;;21.77;14.02;;;-0.40;48.30;;;0.80;81.21;98540.34;5010234;28;118011;-84
2021/12/05 07:45:56;;;;;;;29.83;17.30;;;-0.40;46.40;;;0.91;81.02;98547.25;5026562;28;114663;-84
2021/12/05 07:48:33;;;;;;;25.00;14.80;;;-0.30;46.10;;;1.05;80.50;98548.28;5009765;28;129062;-84
2021/12/05 07:51:10;;;;;;;26.52;14.27;;;-0.20;45.40;;;1.19;79.99;98550.41;5010592;28;130488;-84
2021/12/05 07:53:49;;;;;;;29.50;16.25;;;-0.10;44.20;;;1.32;79.92;98541.78;5026090;28;119395;-84
2021/12/05 07:56:30;;;;;;;30.35;17.67;;;0.00;43.70;;;1.41;79.49;98550.03;5025756;28;115757;-85
2021/12/05 07:59:14;;;;;;;28.08;15.32;;;0.10;43.50;;;1.46;78.42;98546.53;5025149;28;130116;-84
2021/12/05 08:15:42;;;;;;;25.70;14.68;;;0.00;39.20;;;1.36;77.91;98569.56;5011854;28;118539;-85
2021/12/05 08:18:11;;;;;;;30.75;16.58;;;0.00;39.50;;;1.30;78.55;98568.00;5011345;28;115164;-85
2021/12/05 08:21:08;;;;;;;31.20;16.98;;;0.00;38.30;;;1.41;77.70;98566.88;5024086;28;130214;-85
2021/12/05 08:23:37;;;;;;;25.75;14.45;;;0.00;39.90;;;1.63;77.98;98554.22;5010238;28;129040;-84
2021/12/05 08:26:09;;;;;;;27.45;16.10;;;0.20;40.10;;;1.76;77.16;98561.63;5027209;28;117675;-84
2021/12/05 08:31:38;;;;;;;34.45;17.35;;;0.30;37.10;;;1.72;77.10;98561.38;5009553;28;129046;-85
2021/12/05 08:34:48;;;;;;;30.48;17.83;;;0.30;37.10;;;1.80;76.46;98560.78;5026962;28;129640;-82
2021/12/05 08:40:35;;;;;;;40.30;24.10;;;0.40;35.90;;;2.04;76.25;98562.81;5044851;27;116936;-85
2021/12/05 09:08:47;;;;;;;28.80;18.10;;;1.40;28.40;;;3.53;68.91;98556.00;5052881;27;129235;-85
2021/12/05 09:38:30;;;;;;;29.25;17.77;;;2.20;21.60;;;4.03;65.64;98554.81;5043722;27;129158;-83
2021/12/05 09:51:49;;;;;;;31.35;17.00;;;1.40;24.30;;;3.55;67.47;98578.00;5066136;27;129915;-83
2021/12/05 10:02:48;;;;;;;27.95;17.10;;;1.50;25.50;;;3.58;67.88;98577.41;5067254;27;129881;-82
2021/12/05 10:11:16;;;;;;;27.40;16.38;;;1.70;24.50;;;3.67;66.83;98574.88;5048218;27;115948;-82
2021/12/05 10:13:59;;;;;;;31.45;17.35;;;1.80;22.90;;;3.58;67.83;98577.41;5070083;27;130036;-82
2021/12/05 10:16:49;;;;;;;28.55;16.55;;;1.70;23.40;;;3.34;68.19;98582.78;5066448;27;130429;-82
2021/12/05 10:33:56;;;;;;;26.42;16.17;;;1.70;22.60;;;3.69;66.93;98583.44;5067730;27;115643;-82
2021/12/05 10:36:27;;;;;;;26.33;15.80;;;1.80;21.90;;;3.64;66.75;98588.06;5081034;27;130371;-81
2021/12/05 10:39:03;;;;;;;22.13;14.57;;;1.80;22.40;;;3.72;66.99;98582.06;5084334;27;129876;-81
2021/12/05 10:42:01;;;;;;;24.67;14.20;;;1.80;23.00;;;3.77;67.05;98584.66;5070673;27;118230;-81
2021/12/05 10:44:44;;;;;;;25.70;14.27;;;1.90;22.40;;;3.72;66.30;98582.06;5071586;27;114959;-81
2021/12/05 10:47:13;;;;;;;30.25;16.25;;;1.90;21.50;;;3.72;66.10;98587.44;5068746;27;128702;-80
2021/12/05 10:49:42;;;;;;;25.10;14.48;;;1.90;21.00;;;3.72;66.52;98582.06;5068840;27;129068;-81
2021/12/05 10:52:21;;;;;;;24.55;14.55;;;1.90;21.80;;;3.75;65.56;98578.81;5065587;27;119301;-80
2021/12/05 10:54:57;;;;;;;29.73;15.85;;;2.00;21.10;;;3.74;65.23;98575.31;5069060;27;115033;-80
2021/12/05 10:57:30;;;;;;;39.80;27.02;;;2.00;20.60;;;3.55;66.26;98569.13;5068786;27;130076;-81
2021/12/05 11:00:13;;;;;;;27.83;16.98;;;1.90;20.50;;;3.37;66.59;98578.75;5065414;27;130448;-81
2021/12/05 11:02:42;;;;;;;25.95;15.55;;;1.70;20.90;;;3.26;67.48;98579.91;5067448;27;119547;-81
2021/12/05 11:05:10;;;;;;;28.13;14.90;;;1.60;21.80;;;3.23;67.81;98584.00;5068885;27;115660;-81
2021/12/05 11:07:40;;;;;;;24.33;14.27;;;1.50;22.50;;;3.12;68.16;98583.31;5067630;27;129863;-81
2021/12/05 11:10:12;;;;;;;23.67;13.70;;;1.40;22.60;;;3.09;68.05;98581.19;5068383;27;130496;-81
2021/12/05 11:12:41;;;;;;;25.40;14.85;;;1.40;23.00;;;3.11;68.19;98580.91;5069678;27;117166;-81
2021/12/05 11:15:15;;;;;;;26.48;14.18;;;1.40;23.10;;;3.01;68.06;98579.13;5067110;27;115543;-81
2021/12/05 11:17:49;;;;;;;30.17;16.83;;;1.40;23.00;;;2.72;68.47;98587.19;5065186;27;129994;-81
2021/12/05 11:20:29;;;;;;;24.23;15.02;;;1.30;22.20;;;2.37;68.99;98583.69;5065091;27;129945;-81
2021/12/05 11:23:00;;;;;;;33.72;15.60;;;1.10;21.90;;;2.05;70.75;98575.09;5082632;27;118753;-80
2021/12/05 11:25:35;;;;;;;28.90;16.10;;;0.90;23.50;;;2.01;71.39;98576.75;5066229;27;116036;-81
2021/12/05 11:28:08;;;;;;;26.95;16.98;;;0.80;24.00;;;2.18;71.31;98575.53;5051466;27;128869;-81
2021/12/05 11:30:43;;;;;;;27.17;15.98;;;0.90;24.60;;;2.39;70.84;98585.03;5051399;27;128762;-81
2021/12/05 11:33:19;;;;;;;28.65;15.23;;;1.00;24.90;;;2.65;70.29;98572.22;5051149;27;118187;-80
2021/12/05 11:35:52;;;;;;;32.00;16.37;;;1.20;24.90;;;2.76;69.92;98575.63;5068411;27;114524;-81
2021/12/05 11:38:24;;;;;;;27.60;15.25;;;1.30;24.30;;;1.78;70.75;98581.69;5050931;27;129211;-80
2021/12/05 11:40:58;;;;;;;24.08;15.23;;;1.10;21.50;;;1.97;71.55;98573.00;5065883;27;129877;-81
2021/12/05 11:43:31;;;;;;;28.05;16.50;;;1.00;22.50;;;2.74;69.31;98574.28;5066027;27;118693;-80
2021/12/05 11:46:06;;;;;;;30.50;15.82;;;1.40;22.70;;;3.16;68.01;98575.47;5066255;27;116277;-80
2021/12/05 11:48:41;;;;;;;22.10;13.63;;;1.70;22.30;;;3.27;66.63;98582.31;5068068;27;128946;-79
2021/12/05 11:51:34;;;;;;;24.48;13.50;;;1.70;20.10;;;2.93;66.04;98583.22;5069043;27;130092;-79
2021/12/05 11:54:09;;;;;;;22.13;12.15;;;1.50;19.20;;;3.00;66.34;98593.63;5065055;27;119429;-79
2021/12/05 11:56:50;;;;;;;22.88;13.18;;;1.50;19.60;;;2.77;66.53;98585.25;5068886;27;115921;-79
2021/12/05 11:59:24;;;;;;;27.40;14.48;;;1.40;19.50;;;2.74;66.93;98580.44;5050817;27;129583;-79
2021/12/05 12:02:01;;;;;;;24.85;14.07;;;1.30;19.90;;;2.71;67.09;98581.00;5064793;27;129443;-79
2021/12/05 12:04:48;;;;;;;22.95;13.40;;;1.20;20.60;;;2.73;66.57;98578.88;5065418;27;118707;-79
2021/12/05 12:07:36;;;;;;;26.25;12.63;;;1.20;20.00;;;2.49;66.90;98584.97;5051012;27;115257;-79
2021/12/05 12:10:12;;;;;;;23.55;13.60;;;1.10;19.90;;;2.26;67.81;98586.47;5065778;27;129498;-79
2021/12/05 12:12:46;;;;;;;22.80;13.13;;;0.90;20.40;;;2.07;68.33;98594.38;5068587;27;130145;-79
2021/12/05 12:15:17;;;;;;;27.58;12.80;;;0.70;20.90;;;1.83;69.43;98586.19;5066015;27;118949;-79
2021/12/05 12:17:50;;;;;;;26.25;14.45;;;0.60;21.70;;;1.76;69.71;98591.03;5067461;27;115809;-79
2021/12/05 12:20:22;;;;;;;26.67;14.45;;;0.40;22.30;;;1.61;70.57;98598.06;5065509;27;129995;-79
2021/12/05 12:22:54;;;;;;;34.25;15.55;;;0.40;23.50;;;1.54;71.11;98586.06;5064312;27;130081;-79
2021/12/05 12:25:29;;;;;;;24.80;14.10;;;0.30;24.20;;;1.53;71.06;98584.50;5064550;27;119413;-79
2021/12/05 12:27:58;;;;;;;28.52;14.18;;;0.30;24.70;;;1.47;71.43;98580.22;5065921;27;115739;-79
2021/12/05 12:30:32;;;;;;;30.60;14.75;;;0.20;25.00;;;1.34;72.21;98582.41;5065691;27;129706;-79
2021/12/05 12:33:08;;;;;;;33.58;15.27;;;0.10;26.10;;;1.10;73.59;98586.75;5065566;27;129550;-79
2021/12/05 12:35:38;;;;;;;26.60;15.95;;;0.00;27.10;;;1.17;73.74;98588.09;5065893;27;118874;-79
2021/12/05 12:38:12;;;;;;;31.20;17.10;;;0.00;27.10;;;1.01;74.97;98592.66;5065768;27;115745;-80
2021/12/05 12:41:23;;;;;;;39.85;18.25;;;0.00;28.60;;;0.65;77.46;98589.22;5066884;27;129956;-78
2021/12/05 12:43:55;;;;;;;30.95;17.25;;;-0.10;30.10;;;0.62;77.93;98593.22;5065169;27;129993;-78
2021/12/05 12:46:30;;;;;;;29.63;16.75;;;-0.20;31.20;;;0.40;78.55;98595.38;5064197;27;119444;-79
2021/12/05 12:49:20;;;;;;;27.10;15.48;;;-0.30;32.50;;;0.43;78.63;98592.19;5065803;27;117038;-80
2021/12/05 12:51:54;;;;;;;31.13;17.70;;;-0.30;33.30;;;0.54;78.27;98585.75;5064839;27;129129;-80
2021/12/05 12:54:30;;;;;;;31.73;18.33;;;-0.40;33.60;;;0.47;78.63;98588.72;5065065;27;129752;-81
2021/12/05 12:57:12;;;;;;;31.13;16.47;;;-0.40;34.20;;;0.51;78.50;98588.97;5064346;27;118851;-80
2021/12/05 12:59:47;;;;;;;31.92;16.98;;;-0.50;34.90;;;0.40;78.88;98582.81;5067331;27;115808;-79
2021/12/05 13:02:30;;;;;;;38.17;17.83;;;-0.60;36.10;;;0.29;79.64;98600.69;5064859;27;130353;-79
2021/12/05 13:10:41;;;;;;;30.00;17.50;;;-0.80;39.90;;;-0.32;82.16;98600.59;5064125;27;116406;-79
2021/12/05 13:13:18;;;;;;;33.88;18.65;;;-1.00;41.70;;;-0.52;83.32;98602.09;5064901;27;130045;-79
2021/12/05 13:15:52;;;;;;;40.00;19.40;;;-1.10;44.20;;;-0.49;83.58;98612.25;5068285;27;129919;-79
2021/12/05 13:18:42;;;;;;;34.40;19.30;;;-1.20;45.50;;;-0.65;84.05;98623.91;5067244;27;118011;-80
2021/12/05 13:21:17;;;;;;;41.70;21.30;;;-1.40;47.30;;;-0.84;84.76;98623.53;5067827;27;115824;-78
2021/12/05 13:23:50;;;;;;;44.88;22.35;;;-1.50;48.90;;;-1.25;86.80;98632.06;5067430;27;130221;-79
2021/12/05 13:26:29;;;;;;;47.22;22.67;;;-1.70;53.50;;;-1.32;87.68;98634.16;5064671;27;129618;-79
2021/12/05 13:29:11;;;;;;;45.78;22.58;;;-1.80;55.80;;;-1.57;88.85;98637.38;5065381;27;118751;-78
2021/12/05 13:31:46;;;;;;;49.78;23.70;;;-2.00;59.40;;;-1.83;90.33;98645.13;5064043;27;116098;-79
2021/12/05 13:34:31;;;;;;;43.03;22.75;;;-2.20;63.40;;;-1.92;90.73;98639.44;5061004;27;129888;-79
2021/12/05 13:37:31;;;;;;;48.15;23.17;;;-2.30;65.60;;;-2.10;91.69;98656.56;5049578;27;129388;-80
2021/12/05 13:40:21;;;;;;;48.95;24.60;;;-2.50;69.40;;;-2.17;92.72;98662.06;5046425;27;119637;-82
2021/12/05 13:42:55;;;;;;;48.17;24.15;;;-2.60;71.90;;;-2.23;92.86;98664.91;5044540;27;115628;-76
2021/12/05 13:45:41;;;;;;;52.67;25.40;;;-2.60;75.40;;;-2.46;94.22;98660.63;5045781;27;129556;-78
2021/12/05 13:48:25;;;;;;;47.13;23.90;;;-2.70;78.90;;;-2.63;95.35;98674.78;5046778;27;130242;-78
2021/12/05 13:51:05;;;;;;;56.53;25.90;;;-2.70;82.70;;;-2.50;95.69;98670.97;5055354;27;119101;-83
2021/12/05 13:53:49;;;;;;;52.50;26.45;;;-2.70;85.90;;;-2.38;95.80;98673.50;5068186;27;115864;-80
2021/12/05 13:56:25;;;;;;;63.70;29.85;;;-2.60;89.00;;;-2.35;95.69;98681.78;5068289;27;129659;-82
2021/12/05 13:59:07;;;;;;;56.28;28.42;;;-2.50;90.40;;;-2.30;95.87;98685.56;5066371;27;129660;-81
2021/12/05 14:01:49;;;;;;;55.17;26.17;;;-2.50;90.90;;;-2.26;95.96;98686.66;5058700;27;118108;-81
2021/12/05 14:04:28;;;;;;;60.50;27.00;;;-2.40;91.20;;;-2.11;95.83;98683.41;5063176;27;115991;-82
2021/12/05 14:07:04;;;;;;;53.83;26.77;;;-2.40;91.40;;;-2.06;95.51;98684.25;5046151;27;129678;-82
2021/12/05 14:09:39;;;;;;;59.17;28.80;;;-2.30;91.50;;;-1.96;95.21;98688.88;5045438;27;129600;-80
2021/12/05 14:12:17;;;;;;;57.10;28.17;;;-2.30;91.50;;;-1.93;94.79;98695.56;5047396;27;118729;-81
2021/12/05 14:14:51;;;;;;;56.20;27.38;;;-2.30;91.10;;;-1.85;94.70;98692.47;5032527;27;114808;-82
2021/12/05 14:17:23;;;;;;;63.10;28.98;;;-2.20;91.20;;;-1.84;94.45;98704.69;5045758;27;129935;-84
2021/12/05 14:19:58;;;;;;;53.95;26.88;;;-2.20;90.60;;;-1.83;94.45;98707.09;5047182;27;129267;-83
2021/12/05 14:22:31;;;;;;;61.88;29.35;;;-2.20;90.70;;;-1.67;93.60;98709.94;5066461;27;118942;-82
2021/12/05 14:25:06;;;;;;;53.35;26.13;;;-2.10;90.70;;;-1.71;93.35;98706.19;5069617;27;114818;-81
2021/12/05 14:27:41;;;;;;;57.75;26.63;;;-2.20;89.10;;;-2.15;95.20;98709.69;5067203;27;130340;-81
2021/12/05 14:30:16;;;;;;;57.45;25.65;;;-2.30;86.80;;;-1.95;94.20;98714.41;5066932;27;129710;-82
2021/12/05 14:32:48;;;;;;;52.40;23.95;;;-2.30;88.00;;;-2.02;93.88;98713.81;5053151;27;118193;-80
2021/12/05 14:35:22;;;;;;;56.25;26.45;;;-2.30;86.10;;;-2.02;94.42;98727.13;5067667;27;116642;-80